createdAt,value
2023-03-01T00:01:35.284Z,27.72
2023-03-01T00:04:01.905Z,27.28
2023-03-01T00:06:29.535Z,27.14
2023-03-01T00:08:56.497Z,27.05
2023-03-01T00:11:25.073Z,26.71
2023-03-01T00:13:55.166Z,26.69
2023-03-01T00:16:23.706Z,27.50
2023-03-01T00:18:51.628Z,27.48
2023-03-01T00:21:20.492Z,27.38
2023-03-01T00:23:46.991Z,27.40
2023-03-01T00:26:14.538Z,27.10
2023-03-01T00:28:41.656Z,26.83
2023-03-01T00:31:11.280Z,27.25
2023-03-01T00:33:37.902Z,27.12
2023-03-01T00:36:06.740Z,26.74
2023-03-01T00:38:36.256Z,27.13
2023-03-01T00:41:05.648Z,27.28
2023-03-01T00:43:32.293Z,27.42
2023-03-01T00:46:01.978Z,27.11
2023-03-01T00:48:28.529Z,27.03
2023-03-01T00:50:55.073Z,26.36
2023-03-01T00:53:22.863Z,26.28
2023-03-01T00:55:49.370Z,26.25
2023-03-01T00:58:15.873Z,26.26
2023-03-01T01:00:42.711Z,26.28
2023-03-01T01:03:09.423Z,26.40
2023-03-01T01:05:36.221Z,26.26
2023-03-01T01:08:02.727Z,25.81
2023-03-01T01:10:30.582Z,25.55
2023-03-01T01:12:57.165Z,25.60
2023-03-01T01:15:23.680Z,25.56
2023-03-01T01:17:50.259Z,25.54
2023-03-01T01:20:17.196Z,25.49
2023-03-01T01:22:43.890Z,25.53
2023-03-01T01:25:10.582Z,25.92
2023-03-01T01:27:38.440Z,25.80
2023-03-01T01:30:06.202Z,25.43
2023-03-01T01:32:32.792Z,25.30
2023-03-01T01:34:59.331Z,24.69
2023-03-01T01:37:26.490Z,24.91
2023-03-01T01:39:52.964Z,25.12
2023-03-01T01:42:19.801Z,24.99
2023-03-01T01:44:48.253Z,24.68
2023-03-01T01:47:17.912Z,25.00
2023-03-01T01:49:46.895Z,25.42
2023-03-01T01:52:17.486Z,25.21
2023-03-01T01:54:50.034Z,24.61
2023-03-01T01:57:20.886Z,24.71
2023-03-01T01:59:53.424Z,24.65
2023-03-01T02:02:20.715Z,25.01
2023-03-01T02:04:48.793Z,24.91
2023-03-01T02:07:17.700Z,24.65
2023-03-01T02:09:47.407Z,24.68
2023-03-01T02:12:15.271Z,24.68
2023-03-01T02:14:41.967Z,25.05
2023-03-01T02:17:11.271Z,25.14
2023-03-01T02:19:51.444Z,24.88
2023-03-01T02:22:24.888Z,24.65
2023-03-01T02:25:04.975Z,24.44
2023-03-01T02:27:41.978Z,24.62
2023-03-01T02:30:10.862Z,24.30
2023-03-01T02:32:37.410Z,24.48
2023-03-01T02:35:04.345Z,24.47
2023-03-01T02:37:30.816Z,24.52
2023-03-01T02:40:00.612Z,24.81
2023-03-01T02:42:32.558Z,24.83
2023-03-01T02:44:59.337Z,24.39
2023-03-01T02:47:27.225Z,24.31
2023-03-01T02:49:53.786Z,24.20
2023-03-01T02:52:31.509Z,24.22
2023-03-01T02:55:03.091Z,24.28
2023-03-01T02:57:32.802Z,24.23
2023-03-01T03:00:03.422Z,23.97
2023-03-01T03:02:31.634Z,24.42
2023-03-01T03:04:58.320Z,24.55
2023-03-01T03:07:25.197Z,24.46
2023-03-01T03:09:51.869Z,24.19
2023-03-01T03:12:18.619Z,24.12
2023-03-01T03:14:45.161Z,23.87
2023-03-01T03:17:11.852Z,24.01
2023-03-01T03:19:39.585Z,24.16
2023-03-01T03:22:06.239Z,23.82
2023-03-01T03:24:32.834Z,23.78
2023-03-01T03:26:59.421Z,24.14
2023-03-01T03:29:25.868Z,24.53
2023-03-01T03:31:52.559Z,24.26
2023-03-01T03:34:19.284Z,24.09
2023-03-01T03:36:47.158Z,23.65
2023-03-01T03:39:13.841Z,23.70
2023-03-01T03:41:40.352Z,23.75
2023-03-01T03:44:06.983Z,23.61
2023-03-01T03:46:33.704Z,23.76
2023-03-01T03:49:00.420Z,23.77
2023-03-01T03:51:27.025Z,24.00
2023-03-01T03:53:54.824Z,24.38
2023-03-01T03:56:21.331Z,24.16
2023-03-01T03:58:47.935Z,23.90
2023-03-01T04:01:14.485Z,23.85
2023-03-01T04:03:41.057Z,23.59
2023-03-01T04:06:07.710Z,23.68
2023-03-01T04:08:34.303Z,23.69
2023-03-01T04:11:04.782Z,23.52
2023-03-01T04:13:31.275Z,23.52
2023-03-01T04:15:57.727Z,23.70
2023-03-01T04:18:24.854Z,24.37
2023-03-01T04:20:51.638Z,23.92
2023-03-01T04:23:19.867Z,23.59
2023-03-01T04:25:48.594Z,23.66
2023-03-01T04:28:16.765Z,23.42
2023-03-01T04:30:43.346Z,23.58
2023-03-01T04:33:11.221Z,23.63
2023-03-01T04:35:39.080Z,23.35
2023-03-01T04:38:06.185Z,23.38
2023-03-01T04:40:33.495Z,23.54
2023-03-01T04:43:00.386Z,23.83
2023-03-01T04:45:28.348Z,24.03
2023-03-01T04:47:55.022Z,24.04
2023-03-01T04:50:21.925Z,23.48
2023-03-01T04:52:48.828Z,23.42
2023-03-01T04:55:16.004Z,23.33
2023-03-01T04:57:42.817Z,23.25
2023-03-01T05:00:12.944Z,23.29
2023-03-01T05:02:40.921Z,23.28
2023-03-01T05:05:07.772Z,23.35
2023-03-01T05:07:34.261Z,23.93
2023-03-01T05:10:00.764Z,23.96
2023-03-01T05:12:27.230Z,23.57
2023-03-01T05:14:53.830Z,23.32
2023-03-01T05:17:20.355Z,23.21
2023-03-01T05:19:48.194Z,23.04
2023-03-01T05:22:14.686Z,23.00
2023-03-01T05:24:41.176Z,23.28
2023-03-01T05:27:07.651Z,23.08
2023-03-01T05:29:34.185Z,23.18
2023-03-01T05:32:02.329Z,23.74
2023-03-01T05:34:31.074Z,23.78
2023-03-01T05:36:59.859Z,23.48
2023-03-01T05:39:28.740Z,23.28
2023-03-01T05:41:56.995Z,22.91
2023-03-01T05:44:24.293Z,23.12
2023-03-01T05:46:50.923Z,23.09
2023-03-01T05:49:17.732Z,23.08
2023-03-01T05:51:48.465Z,23.13
2023-03-01T05:54:16.521Z,23.08
2023-03-01T05:56:43.304Z,23.16
2023-03-01T05:59:09.817Z,23.73
2023-03-01T06:01:37.037Z,23.45
2023-03-01T06:04:04.442Z,23.20
2023-03-01T06:06:35.123Z,23.07
2023-03-01T06:09:01.742Z,22.97
2023-03-01T06:11:29.509Z,24.08
2023-03-01T06:13:56.175Z,26.58
2023-03-01T06:16:22.697Z,27.82
2023-03-01T06:18:49.321Z,27.11
2023-03-01T06:21:15.829Z,25.97
2023-03-01T06:23:42.331Z,25.42
2023-03-01T06:26:09.213Z,24.57
2023-03-01T06:28:37.194Z,24.98
2023-03-01T06:31:04.366Z,24.31
2023-03-01T06:33:30.971Z,23.94
2023-03-01T06:35:57.732Z,23.71
2023-03-01T06:38:24.929Z,23.78
2023-03-01T06:40:53.296Z,23.73
2023-03-01T06:43:19.845Z,24.05
2023-03-01T06:45:47.645Z,24.06
2023-03-01T06:48:14.288Z,23.78
2023-03-01T06:50:41.062Z,23.63
2023-03-01T06:53:07.636Z,23.62
2023-03-01T06:55:34.879Z,23.50
2023-03-01T06:58:03.264Z,23.51
2023-03-01T07:00:30.498Z,23.12
2023-03-01T07:03:00.868Z,23.13
2023-03-01T07:05:27.433Z,23.51
2023-03-01T07:07:54.625Z,23.66
2023-03-01T07:10:21.238Z,23.81
2023-03-01T07:12:47.770Z,23.51
2023-03-01T07:15:14.351Z,23.44
2023-03-01T07:17:40.917Z,23.36
2023-03-01T07:20:10.068Z,23.26
2023-03-01T07:22:36.729Z,23.50
2023-03-01T07:25:03.296Z,25.12
2023-03-01T07:27:29.806Z,24.88
2023-03-01T07:29:56.317Z,24.85
2023-03-01T07:32:23.069Z,24.34
2023-03-01T07:34:49.697Z,24.24
2023-03-01T07:37:17.872Z,24.55
2023-03-01T07:39:44.418Z,24.38
2023-03-01T07:42:11.051Z,24.67
2023-03-01T07:44:37.614Z,24.43
2023-03-01T07:47:04.845Z,24.69
2023-03-01T07:49:31.711Z,24.47
2023-03-01T07:51:58.363Z,24.66
2023-03-01T07:54:26.382Z,24.51
2023-03-01T07:56:53.088Z,24.56
2023-03-01T07:59:19.758Z,24.64
2023-03-01T08:01:46.414Z,24.62
2023-03-01T08:04:13.039Z,24.65
2023-03-01T08:06:39.602Z,24.87
2023-03-01T08:09:06.177Z,24.77
2023-03-01T08:11:34.055Z,24.81
2023-03-01T08:14:00.722Z,24.99
2023-03-01T08:16:27.446Z,24.94
2023-03-01T08:18:54.004Z,25.19
2023-03-01T08:21:20.569Z,25.07
2023-03-01T08:23:47.154Z,25.16
2023-03-01T08:26:16.806Z,24.84
2023-03-01T08:28:44.990Z,25.12
2023-03-01T08:31:16.087Z,25.01
2023-03-01T08:33:42.952Z,24.90
2023-03-01T08:36:09.597Z,24.74
2023-03-01T08:38:36.417Z,24.95
2023-03-01T08:41:04.315Z,24.79
2023-03-01T08:43:31.301Z,24.69
2023-03-01T08:45:59.317Z,24.78
2023-03-01T08:48:28.409Z,24.58
2023-03-01T08:50:55.048Z,24.86
2023-03-01T08:53:21.580Z,24.42
2023-03-01T08:55:50.464Z,24.71
2023-03-01T08:58:17.371Z,24.52
2023-03-01T09:00:43.910Z,24.47
2023-03-01T09:03:11.783Z,24.38
2023-03-01T09:05:38.335Z,24.46
2023-03-01T09:08:05.133Z,24.47
2023-03-01T09:10:31.833Z,24.54
2023-03-01T09:12:58.440Z,24.56
2023-03-01T09:15:25.028Z,24.46
2023-03-01T09:17:51.655Z,24.50
2023-03-01T09:20:23.258Z,24.44
2023-03-01T09:22:49.935Z,24.61
2023-03-01T09:25:16.958Z,24.41
2023-03-01T09:27:43.617Z,24.63
2023-03-01T09:30:11.331Z,25.03
2023-03-01T09:32:38.334Z,24.92
2023-03-01T09:35:05.821Z,24.80
2023-03-01T09:37:35.379Z,23.54
2023-03-01T09:40:02.319Z,24.82
2023-03-01T09:42:30.546Z,24.11
2023-03-01T09:45:01.291Z,23.72
2023-03-01T09:47:30.115Z,23.80
2023-03-01T09:50:05.805Z,23.61
2023-03-01T09:52:42.187Z,23.31
2023-03-01T09:55:12.372Z,23.53
2023-03-01T09:57:46.887Z,23.48
2023-03-01T10:00:24.161Z,23.35
2023-03-01T10:02:57.796Z,23.26
2023-03-01T10:05:36.752Z,23.36
2023-03-01T10:08:24.585Z,23.56
2023-03-01T10:10:52.914Z,23.41
2023-03-01T10:13:24.589Z,23.45
2023-03-01T10:15:55.210Z,23.76
2023-03-01T10:18:25.727Z,23.56
2023-03-01T10:20:56.229Z,23.72
2023-03-01T10:23:25.532Z,23.57
2023-03-01T10:26:06.242Z,23.53
2023-03-01T10:28:48.033Z,24.42
2023-03-01T10:31:19.758Z,25.81
2023-03-01T10:33:46.275Z,25.20
2023-03-01T10:36:13.252Z,24.43
2023-03-01T10:38:52.326Z,23.94
2023-03-01T10:41:19.080Z,23.64
2023-03-01T10:43:47.401Z,23.42
2023-03-01T10:46:25.002Z,23.54
2023-03-01T10:49:07.649Z,23.86
2023-03-01T10:51:34.393Z,24.29
2023-03-01T10:54:03.029Z,24.26
2023-03-01T10:56:29.620Z,24.40
2023-03-01T10:58:59.867Z,24.25
2023-03-01T11:01:29.222Z,24.26
2023-03-01T11:04:12.488Z,24.13
2023-03-01T11:06:40.748Z,24.64
2023-03-01T11:09:16.606Z,24.05
2023-03-01T11:11:43.397Z,23.46
2023-03-01T11:14:26.342Z,23.13
2023-03-01T11:17:01.692Z,23.20
2023-03-01T11:19:28.325Z,23.15
2023-03-01T11:22:00.588Z,23.41
2023-03-01T11:24:34.652Z,23.25
2023-03-01T11:27:05.058Z,23.11
2023-03-01T11:29:47.930Z,23.38
2023-03-01T11:32:16.350Z,23.39
2023-03-01T11:34:48.280Z,23.22
2023-03-01T11:37:23.501Z,23.27
2023-03-01T11:39:59.286Z,23.28
2023-03-01T11:42:38.991Z,23.82
2023-03-01T11:45:11.390Z,24.08
2023-03-01T11:47:54.927Z,24.40
2023-03-01T11:50:30.018Z,24.15
2023-03-01T11:53:10.609Z,24.47
2023-03-01T11:55:52.750Z,24.62
2023-03-01T11:58:35.274Z,24.54
2023-03-01T12:01:13.950Z,24.87
2023-03-01T12:03:57.987Z,25.02
2023-03-01T12:06:29.175Z,25.48
2023-03-01T12:09:06.828Z,25.12
2023-03-01T12:11:44.174Z,24.75
2023-03-01T12:14:29.419Z,25.22
2023-03-01T12:17:13.775Z,25.08
2023-03-01T12:19:56.452Z,25.01
2023-03-01T12:22:31.943Z,25.21
2023-03-01T12:25:17.378Z,25.05
2023-03-01T12:28:01.551Z,24.95
2023-03-01T12:30:33.740Z,25.32
2023-03-01T12:33:16.090Z,25.98
2023-03-01T12:35:55.200Z,25.67
2023-03-01T12:38:33.356Z,25.86
2023-03-01T12:41:29.219Z,25.77
2023-03-01T12:44:11.876Z,25.52
2023-03-01T12:46:52.932Z,26.01
2023-03-01T12:49:25.797Z,27.00
2023-03-01T12:51:57.648Z,26.41
2023-03-01T12:54:28.544Z,27.08
2023-03-01T12:56:57.911Z,27.45
2023-03-01T12:59:34.067Z,27.50
2023-03-01T13:02:09.684Z,27.78
2023-03-01T13:04:53.066Z,27.70
2023-03-01T13:07:28.431Z,27.22
2023-03-01T13:10:07.901Z,27.32
2023-03-01T13:12:46.311Z,28.25
2023-03-01T13:15:28.761Z,28.23
2023-03-01T13:17:56.597Z,28.75
2023-03-01T13:20:28.653Z,28.95
2023-03-01T13:23:05.664Z,29.10
2023-03-01T13:25:42.060Z,29.39
2023-03-01T13:28:33.818Z,29.21
2023-03-01T13:31:02.666Z,28.28
2023-03-01T13:33:45.536Z,28.63
2023-03-01T13:36:38.817Z,29.35
2023-03-01T13:39:26.091Z,30.00
2023-03-01T13:41:54.177Z,29.59
2023-03-01T13:44:25.780Z,29.34
2023-03-01T13:46:56.903Z,29.28
2023-03-01T13:49:29.880Z,29.64
2023-03-01T13:52:02.860Z,29.31
2023-03-01T13:54:32.332Z,30.18
2023-03-01T13:57:01.647Z,30.16
2023-03-01T13:59:28.359Z,30.29
2023-03-01T14:01:58.142Z,30.60
2023-03-01T14:04:27.038Z,31.07
2023-03-01T14:07:10.161Z,30.49
2023-03-01T14:09:41.798Z,30.73
2023-03-01T14:12:26.142Z,30.67
2023-03-01T14:15:00.352Z,30.33
2023-03-01T14:17:43.333Z,30.39
2023-03-01T14:20:15.344Z,30.56
2023-03-01T14:22:43.711Z,30.72
2023-03-01T14:25:22.687Z,30.10
2023-03-01T14:27:56.141Z,29.94
2023-03-01T14:30:25.309Z,28.63
2023-03-01T14:32:56.965Z,29.05
2023-03-01T14:35:26.054Z,29.60
2023-03-01T14:37:52.666Z,28.69
2023-03-01T14:40:25.412Z,29.28
2023-03-01T14:42:53.366Z,28.90
2023-03-01T14:45:20.213Z,30.12
2023-03-01T14:47:48.242Z,29.00
2023-03-01T14:50:22.830Z,28.40
2023-03-01T14:52:52.749Z,29.56
2023-03-01T14:55:21.835Z,28.66
2023-03-01T14:57:50.075Z,29.44
2023-03-01T15:00:20.905Z,29.98
2023-03-01T15:02:49.519Z,30.05
2023-03-01T15:05:19.931Z,30.30
2023-03-01T15:07:47.132Z,30.02
2023-03-01T15:10:20.981Z,30.27
2023-03-01T15:12:47.514Z,30.25
2023-03-01T15:15:33.564Z,30.05
2023-03-01T15:18:02.325Z,29.98
2023-03-01T15:20:31.648Z,30.00
2023-03-01T15:22:58.988Z,30.33
2023-03-01T15:25:27.996Z,30.27
2023-03-01T15:27:57.622Z,30.34
2023-03-01T15:30:27.926Z,30.28
2023-03-01T15:33:14.225Z,30.31
2023-03-01T15:35:44.140Z,29.44
2023-03-01T15:38:26.133Z,28.32
2023-03-01T15:40:53.601Z,27.76
2023-03-01T15:43:39.366Z,27.10
2023-03-01T15:46:06.095Z,26.83
2023-03-01T15:48:32.803Z,26.81
2023-03-01T15:51:00.976Z,26.68
2023-03-01T15:53:28.592Z,26.44
2023-03-01T15:55:55.122Z,26.07
2023-03-01T15:58:24.375Z,26.23
2023-03-01T16:01:00.754Z,26.50
2023-03-01T16:03:28.262Z,26.36
2023-03-01T16:05:54.989Z,26.43
2023-03-01T16:08:22.898Z,26.45
2023-03-01T16:10:50.480Z,26.25
2023-03-01T16:13:17.488Z,26.08
2023-03-01T16:15:44.492Z,26.01
2023-03-01T16:18:11.159Z,26.09
2023-03-01T16:20:38.081Z,26.08
2023-03-01T16:23:07.145Z,26.08
2023-03-01T16:25:36.260Z,26.01
2023-03-01T16:28:03.001Z,25.89
2023-03-01T16:30:29.617Z,26.01
2023-03-01T16:32:56.169Z,25.67
2023-03-01T16:35:23.348Z,25.85
2023-03-01T16:37:50.172Z,25.67
2023-03-01T16:40:19.298Z,26.20
2023-03-01T16:42:47.382Z,26.17
2023-03-01T16:45:23.515Z,26.29
2023-03-01T16:47:52.112Z,26.14
2023-03-01T16:50:19.943Z,26.29
2023-03-01T16:52:46.432Z,26.12
2023-03-01T16:55:12.931Z,26.55
2023-03-01T16:57:39.736Z,26.45
2023-03-01T17:00:09.448Z,26.28
2023-03-01T17:02:36.431Z,26.28
2023-03-01T17:05:03.543Z,26.31
2023-03-01T17:07:30.561Z,26.21
2023-03-01T17:09:57.078Z,26.48
2023-03-01T17:12:23.635Z,26.21
2023-03-01T17:14:50.891Z,26.51
2023-03-01T17:17:18.890Z,26.41
2023-03-01T17:19:45.610Z,26.44
2023-03-01T17:22:12.657Z,26.79
2023-03-01T17:24:40.266Z,27.11
2023-03-01T17:27:07.827Z,27.15
2023-03-01T17:29:34.895Z,27.34
2023-03-01T17:32:01.655Z,27.15
2023-03-01T17:34:31.709Z,27.53
2023-03-01T17:36:58.363Z,27.80
2023-03-01T17:39:25.019Z,27.52
2023-03-01T17:41:51.719Z,27.56
2023-03-01T17:44:18.264Z,27.33
2023-03-01T17:46:44.868Z,27.47
2023-03-01T17:49:11.374Z,27.77
2023-03-01T17:51:39.579Z,27.91
2023-03-01T17:54:06.100Z,28.02
2023-03-01T17:56:32.570Z,28.38
2023-03-01T17:58:59.171Z,28.46
2023-03-01T18:01:25.728Z,27.95
2023-03-01T18:03:53.245Z,28.28
2023-03-01T18:06:22.260Z,28.19
2023-03-01T18:08:50.080Z,28.32
2023-03-01T18:11:17.217Z,28.18
2023-03-01T18:13:44.799Z,28.09
2023-03-01T18:16:14.502Z,28.17
2023-03-01T18:18:42.105Z,28.26
2023-03-01T18:21:08.694Z,28.19
2023-03-01T18:23:36.072Z,27.88
2023-03-01T18:26:06.493Z,28.10
2023-03-01T18:28:33.913Z,28.15
2023-03-01T18:31:03.056Z,28.31
2023-03-01T18:33:30.304Z,28.27
2023-03-01T18:35:57.164Z,28.10
2023-03-01T18:38:24.007Z,28.09
2023-03-01T18:40:51.834Z,28.18
2023-03-01T18:43:19.694Z,28.39
2023-03-01T18:45:46.289Z,28.14
2023-03-01T18:48:13.635Z,28.19
2023-03-01T18:50:40.713Z,28.19
2023-03-01T18:53:07.936Z,28.21
2023-03-01T18:55:36.363Z,28.13
2023-03-01T18:58:02.969Z,28.22
2023-03-01T19:00:31.007Z,28.29
2023-03-01T19:02:58.493Z,28.22
2023-03-01T19:05:25.252Z,28.47
2023-03-01T19:07:51.799Z,28.42
2023-03-01T19:10:18.448Z,28.19
2023-03-01T19:12:45.047Z,28.34
2023-03-01T19:15:11.874Z,28.03
2023-03-01T19:17:39.740Z,28.10
2023-03-01T19:20:07.476Z,27.95
2023-03-01T19:22:34.059Z,28.14
2023-03-01T19:25:00.748Z,27.88
2023-03-01T19:27:27.775Z,27.67
2023-03-01T19:29:54.295Z,27.07
2023-03-01T19:32:20.929Z,26.81
2023-03-01T19:34:48.774Z,26.81
2023-03-01T19:37:15.265Z,26.81
2023-03-01T19:39:42.382Z,26.71
2023-03-01T19:42:09.152Z,26.79
2023-03-01T19:44:35.738Z,26.84
2023-03-01T19:47:02.280Z,27.00
2023-03-01T19:49:28.786Z,27.27
2023-03-01T19:51:56.616Z,26.44
2023-03-01T19:54:23.108Z,26.75
2023-03-01T19:56:50.356Z,26.56
2023-03-01T19:59:17.718Z,26.72
2023-03-01T20:01:44.277Z,26.74
2023-03-01T20:04:11.743Z,26.94
2023-03-01T20:06:39.049Z,26.90
2023-03-01T20:09:20.472Z,26.65
2023-03-01T20:11:48.266Z,26.69
2023-03-01T20:14:15.330Z,26.63
2023-03-01T20:16:42.347Z,26.66
2023-03-01T20:19:09.357Z,27.01
2023-03-01T20:21:36.155Z,26.85
2023-03-01T20:24:02.968Z,26.89
2023-03-01T20:26:31.278Z,26.89
2023-03-01T20:28:58.125Z,26.88
2023-03-01T20:31:26.156Z,27.43
2023-03-01T20:33:55.299Z,27.30
2023-03-01T20:36:21.885Z,27.29
2023-03-01T20:38:48.415Z,27.15
2023-03-01T20:41:15.166Z,27.05
2023-03-01T20:43:43.065Z,27.11
2023-03-01T20:46:12.184Z,27.10
2023-03-01T20:48:40.637Z,27.28
2023-03-01T20:51:08.455Z,27.15
2023-03-01T20:53:35.400Z,27.28
2023-03-01T20:56:03.345Z,27.34
2023-03-01T20:58:30.314Z,27.71
2023-03-01T21:00:58.356Z,27.66
2023-03-01T21:03:25.430Z,27.23
2023-03-01T21:05:55.120Z,27.44
2023-03-01T21:08:21.677Z,27.50
2023-03-01T21:10:50.420Z,27.26
2023-03-01T21:13:16.994Z,27.41
2023-03-01T21:15:51.699Z,27.16
2023-03-01T21:18:19.578Z,27.09
2023-03-01T21:20:46.121Z,26.98
2023-03-01T21:23:12.675Z,26.59
2023-03-01T21:25:39.223Z,26.85
2023-03-01T21:28:05.837Z,26.62
2023-03-01T21:30:32.362Z,26.65
2023-03-01T21:32:58.886Z,27.10
2023-03-01T21:35:26.952Z,26.11
2023-03-01T21:37:53.463Z,26.78
2023-03-01T21:40:20.037Z,26.33
2023-03-01T21:42:46.636Z,26.37
2023-03-01T21:45:13.186Z,26.30
2023-03-01T21:47:39.728Z,26.30
2023-03-01T21:50:06.629Z,26.49
2023-03-01T21:52:35.684Z,26.33
2023-03-01T21:55:02.171Z,25.86
2023-03-01T21:57:28.626Z,26.17
2023-03-01T21:59:55.237Z,26.33
2023-03-01T22:02:21.771Z,26.40
2023-03-01T22:04:52.271Z,26.52
2023-03-01T22:07:19.023Z,26.47
2023-03-01T22:09:46.798Z,26.41
2023-03-01T22:12:13.308Z,26.21
2023-03-01T22:14:39.790Z,26.60
2023-03-01T22:17:06.339Z,26.39
2023-03-01T22:19:32.862Z,26.14
2023-03-01T22:21:59.326Z,26.69
2023-03-01T22:24:26.131Z,25.88
2023-03-01T22:26:54.456Z,25.84
2023-03-01T22:29:23.119Z,26.00
2023-03-01T22:31:49.982Z,26.15
2023-03-01T22:34:16.749Z,26.20
2023-03-01T22:36:43.838Z,26.18
2023-03-01T22:39:10.988Z,26.22
2023-03-01T22:41:39.230Z,26.17
2023-03-01T22:44:06.956Z,26.61
2023-03-01T22:46:33.703Z,26.65
2023-03-01T22:49:00.458Z,26.23
2023-03-01T22:51:29.297Z,26.23
2023-03-01T22:53:56.616Z,26.13
2023-03-01T22:56:26.064Z,26.23
2023-03-01T22:58:52.803Z,26.13
2023-03-01T23:01:22.424Z,25.99
2023-03-01T23:03:49.559Z,26.03
2023-03-01T23:06:18.144Z,26.09
2023-03-01T23:08:49.111Z,26.08
2023-03-01T23:11:17.603Z,26.15
2023-03-01T23:13:44.251Z,25.98
2023-03-01T23:16:12.316Z,25.95
2023-03-01T23:18:40.479Z,26.13
2023-03-01T23:21:08.498Z,25.95
2023-03-01T23:23:35.112Z,26.24
2023-03-01T23:26:01.957Z,26.17
2023-03-01T23:28:30.027Z,25.72
2023-03-01T23:30:57.993Z,25.50
2023-03-01T23:33:25.841Z,25.73
2023-03-01T23:35:53.929Z,25.97
2023-03-01T23:38:20.959Z,25.65
2023-03-01T23:40:47.611Z,25.59
2023-03-01T23:43:14.466Z,25.82
2023-03-01T23:45:41.421Z,25.99
2023-03-01T23:48:07.992Z,26.28
2023-03-01T23:50:35.952Z,25.71
2023-03-01T23:53:03.735Z,25.42
2023-03-01T23:55:30.835Z,25.54
2023-03-01T23:57:57.526Z,25.94
